Meteo Giornale » Osservazioni meteo Francia » Nizza

ore: 20:00 - Osservazioni Meteo Nizza
Lat. 43° 39' N Lon. 7° 12' E Alt. 4 metri s.l.m.

sereno Europe/Paris

15 °C

Sereno

Temp. 24 Ore

12 °C

19 °C

Nord/NOvest

9.3 Km/h

Dew point 3 °C

Umidità 44 %

Visibilità  10 Km

Il sole sorge alle ore 06:27

Il sole tramonta alle ore 18:48

Data e Ora Cielo e Fenomeni T °C DP °C Um. % Pres. hPa Vis. km Vento km/h
Oggi h: 20:00 sereno Sereno 15 3 44 1022 10 N/NO 9.3
Oggi h: 19:30 sereno Sereno 15 6 54 1022 10 N 5.5
Oggi h: 19:00 sereno Sereno 15 7 58 1022 10 N 3.7
Oggi h: 18:30 sereno Sereno 16 9 63 1022 10 N 3.7
Oggi h: 18:00 sereno Sereno 16 10 67 1022 10 N 3.7
Oggi h: 17:30 sereno Sereno 17 10 63 1022 10 N 5.5
Oggi h: 17:00 sereno Sereno 17 8 55 1022 10 S 7.4
Oggi h: 16:30 sereno Sereno 18 7 48 1022 10 S 7.4
Oggi h: 16:00 sereno Sereno 18 4 39 1022 10 N 5.5
Oggi h: 15:30 sereno Sereno 18 3 36 1023 10 N 3.7
Oggi h: 15:00 sereno Sereno 19 5 39 1023 10 N 5.5
Oggi h: 14:30 sereno Sereno 18 4 39 1023 10 N 5.5
Oggi h: 14:00 sereno Sereno 18 2 34 1023 10 N 5.5
Oggi h: 13:30 sereno Sereno 18 2 34 1024 10 N 5.5
Oggi h: 13:00 sereno Sereno 17 5 45 1024 10 E 7.4
Oggi h: 12:30 sereno Sereno 17 10 63 1024 10 N 5.5
Oggi h: 12:00 sereno Sereno 16 9 63 1024 10 N 5.5
Oggi h: 11:00 sereno Sereno 16 9 63 1024 10 E 9.3
Oggi h: 10:30 sereno Sereno 16 7 55 1024 10 E 13
Oggi h: 10:00 sereno Sereno 18 -2 25 1024 10 E/NE 11.1
Oggi h: 09:30 sereno Sereno 17 -5 21 1024 10 N/NO 16.7
Oggi h: 09:00 sereno Sereno 16 -5 23 1024 10 N/NO 16.7
Oggi h: 08:30 sereno Sereno 14 -4 28 1024 10 N/NO 18.5
Oggi h: 08:00 sereno Sereno 13 -5 28 1024 10 N/NO 18.5
Oggi h: 07:30 sereno Sereno 12 -4 32 1024 10 N/NO 18.5
Oggi h: 07:00 sereno Sereno 12 -4 32 1024 10 N/NO 20.3
Oggi h: 06:30 sereno Sereno 12 -4 32 1024 10 N/NO 22.2
Oggi h: 06:00 sereno Sereno 12 -4 32 1024 10 N/NO 18.5
Oggi h: 05:30 sereno Sereno 12 -3 34 1024 10 N 16.7
Oggi h: 05:00 sereno Sereno 12 -3 34 1024 10 N/NO 16.7
Oggi h: 04:30 sereno Sereno 12 -3 34 1024 10 N 16.7
Oggi h: 04:00 sereno Sereno 12 -3 34 1024 10 N/NO 22.2
Oggi h: 03:30 sereno Sereno 12 -3 34 1024 10 N/NO 25.9
Oggi h: 03:00 sereno Sereno 12 -3 34 1024 10 N/NO 25.9
Oggi h: 02:00 sereno Sereno 13 -3 32 1025 10 N/NO 18.5
Oggi h: 01:30 sereno Sereno 13 -3 32 1025 10 N/NO 18.5
Oggi h: 01:00 sereno Sereno 13 -3 32 1025 10 N/NO 14.8
Oggi h: 00:30 sereno Sereno 13 -3 32 1025 10 N/NO 13
Ieri h: 23:30 sereno Sereno 14 -3 30 1025 10 N/NO 14.8
Ieri h: 23:00 sereno Sereno 14 -3 30 1025 10 N 13
Ieri h: 22:30 sereno Sereno 14 -3 30 1025 10 N/NO 16.7
Ieri h: 22:00 sereno Sereno 14 -3 30 1025 10 N/NO 20.3
Ieri h: 21:30 sereno Sereno 14 -2 32 1025 10 N/NO 13
Ieri h: 21:00 sereno Sereno 14 -2 32 1025 10 N/NO 16.7
Ieri h: 20:30 sereno Sereno 15 -1 33 1025 10 N/NO 11.1
Ieri h: 20:00 sereno Sereno 14 1 41 1025 10 N/NO 11.1